Finlandia — OJPP — position and weather

sailwx.info

Track history (hours):
 
Tides and Currents Weather Stations Pressure Air Temp Water Temp Dewpoint Dewpoint Depression Visibility Wind Speed Wind Dir Waves Ship Positions

Finlandia

Last reported at 2016-Aug-31 01:15 UTC. Time now 2016-Aug-31 02:14 UTC.
Position N 59°53' E 024°51'.

Length 175 m; draft 7 m.

Type: Ship (hazmat cat A). MMSI: 230628000.

Date/timePositionNaut miles runAvg speedWind from/ knotsBaromVisibWave heightAir tempDewpointWater temp
2016-Aug-31 01:15N 59°53' E 024°51'913.5
2016-Aug-31 00:33N 59°50' E 024°34'1111.2
2016-Aug-30 23:33N 59°40' E 024°45'1413.6
2016-Aug-30 22:33N 59°27' E 024°46'1 0.8
2016-Aug-30 21:34N 59°27' E 024°47'1818.1
2016-Aug-30 20:33N 59°45' E 024°48'4 1.0
2016-Aug-30 16:33N 59°42' E 024°45'1515.0
2016-Aug-30 15:34N 59°27' E 024°46'1 0.7
2016-Aug-30 14:33N 59°27' E 024°47'2322.8
2016-Aug-30 13:34N 59°50' E 024°48'6 2.0
2016-Aug-30 10:33N 59°56' E 024°52'2322.9
2016-Aug-30 09:34N 59°33' E 024°43'7 6.9
2016-Aug-30 08:33N 59°27' E 024°46'4 3.7
2016-Aug-30 07:34N 59°30' E 024°44'1919.0
2016-Aug-30 06:33N 59°49' E 024°50'8 0.6
2016-Aug-29 16:34N 59°41' E 024°45'14 6.9
2016-Aug-29 14:31N 59°27' E 024°47'2323.2
2016-Aug-29 13:31N 59°51' E 024°48'16 4.0
2016-Aug-29 09:25N 59°35' E 024°42'4 1.8
2016-Aug-29 07:29N 59°31' E 024°44'21 1.4
2016-Aug-28 17:03N 59°52' E 024°49'1020.6
2016-Aug-28 16:33N 59°42' E 024°41'1613.3
2016-Aug-28 15:22N 59°27' E 024°46'0 0.0
2016-Aug-28 14:33N 59°27' E 024°46'1818.0
2016-Aug-28 13:33N 59°45' E 024°47'5 1.4
2016-Aug-28 10:13N 59°49' E 024°45'1320.6
2016-Aug-28 09:34N 59°36' E 024°41'10 9.6
2016-Aug-28 08:33N 59°27' E 024°46'4 3.7
2016-Aug-28 07:33N 59°30' E 024°44'1918.8
2016-Aug-28 06:34N 59°49' E 024°49'6 0.4
2016-Aug-27 17:12N 59°54' E 024°51'1219.0
2016-Aug-27 16:34N 59°43' E 024°41'1716.7
2016-Aug-27 15:33N 59°27' E 024°46'1 0.7
2016-Aug-27 14:34N 59°27' E 024°47'2323.1
2016-Aug-27 13:34N 59°50' E 024°50'12 3.1
2016-Aug-27 09:33N 59°38' E 024°43'1211.7
2016-Aug-27 08:33N 59°27' E 024°46'4 3.7
2016-Aug-27 07:33N 59°30' E 024°44'2020.1
2016-Aug-27 06:33N 59°50' E 024°50'9 0.7
2016-Aug-26 16:33N 59°42' E 024°45'1514.9
2016-Aug-26 15:34N 59°27' E 024°46'0 0.3
2016-Aug-26 14:34N 59°27' E 024°46'2322.6
2016-Aug-26 13:32N 59°50' E 024°47'13 3.2
2016-Aug-26 09:33N 59°38' E 024°42'1111.1
2016-Aug-26 08:33N 59°27' E 024°46'4 3.6
2016-Aug-26 07:34N 59°30' E 024°44'2420.2
2016-Aug-26 06:23N 59°54' E 024°50'11 0.8
2016-Aug-25 16:33N 59°43' E 024°46'1615.9
2016-Aug-25 15:33N 59°27' E 024°46'0 0.4
2016-Aug-25 14:33N 59°27' E 024°47'2121.3
2016-Aug-25 13:33N 59°48' E 024°51'7 2.2
2016-Aug-25 10:23N 59°55' E 024°51'1821.1
2016-Aug-25 09:34N 59°39' E 024°41'1212.0
2016-Aug-25 08:33N 59°27' E 024°46'3 3.1
2016-Aug-25 07:33N 59°30' E 024°45'1919.3
2016-Aug-25 06:33N 59°49' E 024°48'21 8.5
2016-Aug-25 04:07N 60°09' E 024°55'2 2.5
2016-Aug-25 03:28N 60°08' E 024°54'1213.4
2016-Aug-25 02:33N 59°55' E 024°53'8 7.5
2016-Aug-25 01:33N 59°48' E 024°49'8 7.6
2016-Aug-25 00:33N 59°42' E 024°41'8 8.1
2016-Aug-24 23:33N 59°34' E 024°43'7 7.0
2016-Aug-24 22:33N 59°27' E 024°46'0 0.2
2016-Aug-24 21:34N 59°27' E 024°46'1716.6
2016-Aug-24 20:33N 59°44' E 024°47'2320.1
2016-Aug-24 19:26N 60°06' E 024°54'24 8.2
2016-Aug-24 16:33N 59°43' E 024°41'1715.3
2016-Aug-24 15:28N 59°27' E 024°46'0 0.4
2016-Aug-24 14:33N 59°27' E 024°46'2323.0
2016-Aug-24 13:34N 59°50' E 024°49'12 3.0
2016-Aug-24 09:34N 59°38' E 024°42'1210.4
2016-Aug-24 08:26N 59°27' E 024°46'4 4.6
2016-Aug-24 07:30N 59°31' E 024°44'2020.5
2016-Aug-24 06:30N 59°51' E 024°49'6 1.1
2016-Aug-24 01:15N 59°46' E 024°48'5 7.8
2016-Aug-24 00:33N 59°40' E 024°45'7 7.5
2016-Aug-23 23:33N 59°33' E 024°43'6 6.3
2016-Aug-23 22:33N 59°27' E 024°46'0 0.3
2016-Aug-23 21:34N 59°27' E 024°46'1717.2
2016-Aug-23 20:33N 59°44' E 024°43'2419.4
2016-Aug-23 19:18N 60°08' E 024°54'25 9.2
2016-Aug-23 16:33N 59°43' E 024°47'1615.9
2016-Aug-23 15:33N 59°27' E 024°46'0 0.1
2016-Aug-23 14:34N 59°27' E 024°46'1919.1
2016-Aug-23 13:34N 59°46' E 024°48'1 0.1
2016-Aug-23 10:04N 59°45' E 024°49'1122.7
2016-Aug-23 09:33N 59°35' E 024°42'8 8.1
2016-Aug-23 08:33N 59°27' E 024°46'4 4.0
2016-Aug-23 07:34N 59°31' E 024°44'10 0.7
2016-Aug-22 16:32N 59°40' E 024°44'1413.1
2016-Aug-22 15:29N 59°27' E 024°46'1 0.6
2016-Aug-22 14:32N 59°27' E 024°47'2323.5
2016-Aug-22 13:33N 59°50' E 024°49'14 3.5
2016-Aug-22 09:33N 59°36' E 024°41'10 9.5
2016-Aug-22 08:30N 59°27' E 024°46'8 6.9
2016-Aug-22 07:20N 59°34' E 024°41'2419.9
2016-Aug-22 06:09N 59°57' E 024°53'12 2.6
2016-Aug-22 01:32N 60°09' E 024°55'0 0.0
2016-Aug-21 23:14N 60°09' E 024°55'28 4.2
2016-Aug-21 16:33N 59°41' E 024°45'1514.7
2016-Aug-21 15:33N 59°27' E 024°46'0 0.3
2016-Aug-21 14:34N 59°27' E 024°46'2222.1
2016-Aug-21 13:34N 59°49' E 024°50'7 2.2
2016-Aug-21 10:33N 59°56' E 024°51'1919.6
2016-Aug-21 09:33N 59°37' E 024°41'1010.4
2016-Aug-21 08:33N 59°27' E 024°46'3 2.7
2016-Aug-21 07:33N 59°29' E 024°45'1919.5
2016-Aug-21 06:34N 59°49' E 024°47'  
Track history (hours):
 
Tides and Currents Weather Stations Pressure Air Temp Water Temp Dewpoint Dewpoint Depression Visibility Wind Speed Wind Dir Waves Ship Positions

Finlandia

Last reported at 2016-Aug-31 01:15 UTC. Time now 2016-Aug-31 02:14 UTC.
Position N 59°53' E 024°51'.

Length 175 m; draft 7 m.

Type: Ship (hazmat cat A). MMSI: 230628000.

Date/timePositionNaut miles runAvg speedWind from/ knotsBaromVisibWave heightAir tempDewpointWater temp
2016-Aug-31 01:15N 59°53' E 024°51'913.5
2016-Aug-31 00:33N 59°50' E 024°34'1111.2
2016-Aug-30 23:33N 59°40' E 024°45'1413.6
2016-Aug-30 22:33N 59°27' E 024°46'1 0.8
2016-Aug-30 21:34N 59°27' E 024°47'1818.1
2016-Aug-30 20:33N 59°45' E 024°48'4 1.0
2016-Aug-30 16:33N 59°42' E 024°45'1515.0
2016-Aug-30 15:34N 59°27' E 024°46'1 0.7
2016-Aug-30 14:33N 59°27' E 024°47'2322.8
2016-Aug-30 13:34N 59°50' E 024°48'6 2.0
2016-Aug-30 10:33N 59°56' E 024°52'2322.9
2016-Aug-30 09:34N 59°33' E 024°43'7 6.9
2016-Aug-30 08:33N 59°27' E 024°46'4 3.7
2016-Aug-30 07:34N 59°30' E 024°44'1919.0
2016-Aug-30 06:33N 59°49' E 024°50'8 0.6
2016-Aug-29 16:34N 59°41' E 024°45'14 6.9
2016-Aug-29 14:31N 59°27' E 024°47'2323.2
2016-Aug-29 13:31N 59°51' E 024°48'16 4.0
2016-Aug-29 09:25N 59°35' E 024°42'4 1.8
2016-Aug-29 07:29N 59°31' E 024°44'21 1.4
2016-Aug-28 17:03N 59°52' E 024°49'1020.6
2016-Aug-28 16:33N 59°42' E 024°41'1613.3
2016-Aug-28 15:22N 59°27' E 024°46'0 0.0
2016-Aug-28 14:33N 59°27' E 024°46'1818.0
2016-Aug-28 13:33N 59°45' E 024°47'5 1.4
2016-Aug-28 10:13N 59°49' E 024°45'1320.6
2016-Aug-28 09:34N 59°36' E 024°41'10 9.6
2016-Aug-28 08:33N 59°27' E 024°46'4 3.7
2016-Aug-28 07:33N 59°30' E 024°44'1918.8
2016-Aug-28 06:34N 59°49' E 024°49'6 0.4
2016-Aug-27 17:12N 59°54' E 024°51'1219.0
2016-Aug-27 16:34N 59°43' E 024°41'1716.7
2016-Aug-27 15:33N 59°27' E 024°46'1 0.7
2016-Aug-27 14:34N 59°27' E 024°47'2323.1
2016-Aug-27 13:34N 59°50' E 024°50'12 3.1
2016-Aug-27 09:33N 59°38' E 024°43'1211.7
2016-Aug-27 08:33N 59°27' E 024°46'4 3.7
2016-Aug-27 07:33N 59°30' E 024°44'2020.1
2016-Aug-27 06:33N 59°50' E 024°50'9 0.7
2016-Aug-26 16:33N 59°42' E 024°45'1514.9
2016-Aug-26 15:34N 59°27' E 024°46'0 0.3
2016-Aug-26 14:34N 59°27' E 024°46'2322.6
2016-Aug-26 13:32N 59°50' E 024°47'13 3.2
2016-Aug-26 09:33N 59°38' E 024°42'1111.1
2016-Aug-26 08:33N 59°27' E 024°46'4 3.6
2016-Aug-26 07:34N 59°30' E 024°44'2420.2
2016-Aug-26 06:23N 59°54' E 024°50'11 0.8
2016-Aug-25 16:33N 59°43' E 024°46'1615.9
2016-Aug-25 15:33N 59°27' E 024°46'0 0.4
2016-Aug-25 14:33N 59°27' E 024°47'2121.3
2016-Aug-25 13:33N 59°48' E 024°51'7 2.2
2016-Aug-25 10:23N 59°55' E 024°51'1821.1
2016-Aug-25 09:34N 59°39' E 024°41'1212.0
2016-Aug-25 08:33N 59°27' E 024°46'3 3.1
2016-Aug-25 07:33N 59°30' E 024°45'1919.3
2016-Aug-25 06:33N 59°49' E 024°48'21 8.5
2016-Aug-25 04:07N 60°09' E 024°55'2 2.5
2016-Aug-25 03:28N 60°08' E 024°54'1213.4
2016-Aug-25 02:33N 59°55' E 024°53'8 7.5
2016-Aug-25 01:33N 59°48' E 024°49'8 7.6
2016-Aug-25 00:33N 59°42' E 024°41'8 8.1
2016-Aug-24 23:33N 59°34' E 024°43'7 7.0
2016-Aug-24 22:33N 59°27' E 024°46'0 0.2
2016-Aug-24 21:34N 59°27' E 024°46'1716.6
2016-Aug-24 20:33N 59°44' E 024°47'2320.1
2016-Aug-24 19:26N 60°06' E 024°54'24 8.2
2016-Aug-24 16:33N 59°43' E 024°41'1715.3
2016-Aug-24 15:28N 59°27' E 024°46'0 0.4
2016-Aug-24 14:33N 59°27' E 024°46'2323.0
2016-Aug-24 13:34N 59°50' E 024°49'12 3.0
2016-Aug-24 09:34N 59°38' E 024°42'1210.4
2016-Aug-24 08:26N 59°27' E 024°46'4 4.6
2016-Aug-24 07:30N 59°31' E 024°44'2020.5
2016-Aug-24 06:30N 59°51' E 024°49'6 1.1
2016-Aug-24 01:15N 59°46' E 024°48'5 7.8
2016-Aug-24 00:33N 59°40' E 024°45'7 7.5
2016-Aug-23 23:33N 59°33' E 024°43'6 6.3
2016-Aug-23 22:33N 59°27' E 024°46'0 0.3
2016-Aug-23 21:34N 59°27' E 024°46'1717.2
2016-Aug-23 20:33N 59°44' E 024°43'2419.4
2016-Aug-23 19:18N 60°08' E 024°54'25 9.2
2016-Aug-23 16:33N 59°43' E 024°47'1615.9
2016-Aug-23 15:33N 59°27' E 024°46'0 0.1
2016-Aug-23 14:34N 59°27' E 024°46'1919.1
2016-Aug-23 13:34N 59°46' E 024°48'1 0.1
2016-Aug-23 10:04N 59°45' E 024°49'1122.7
2016-Aug-23 09:33N 59°35' E 024°42'8 8.1
2016-Aug-23 08:33N 59°27' E 024°46'4 4.0
2016-Aug-23 07:34N 59°31' E 024°44'10 0.7
2016-Aug-22 16:32N 59°40' E 024°44'1413.1
2016-Aug-22 15:29N 59°27' E 024°46'1 0.6
2016-Aug-22 14:32N 59°27' E 024°47'2323.5
2016-Aug-22 13:33N 59°50' E 024°49'14 3.5
2016-Aug-22 09:33N 59°36' E 024°41'10 9.5
2016-Aug-22 08:30N 59°27' E 024°46'8 6.9
2016-Aug-22 07:20N 59°34' E 024°41'2419.9
2016-Aug-22 06:09N 59°57' E 024°53'12 2.6
2016-Aug-22 01:32N 60°09' E 024°55'0 0.0
2016-Aug-21 23:14N 60°09' E 024°55'28 4.2
2016-Aug-21 16:33N 59°41' E 024°45'1514.7
2016-Aug-21 15:33N 59°27' E 024°46'0 0.3
2016-Aug-21 14:34N 59°27' E 024°46'2222.1
2016-Aug-21 13:34N 59°49' E 024°50'7 2.2
2016-Aug-21 10:33N 59°56' E 024°51'1919.6
2016-Aug-21 09:33N 59°37' E 024°41'1010.4
2016-Aug-21 08:33N 59°27' E 024°46'3 2.7
2016-Aug-21 07:33N 59°29' E 024°45'1919.5
2016-Aug-21 06:34N 59°49' E 024°47'  

Dump ship's entire track history